sensor_id;sensor_type;location;lat;lon;timestamp;pressure;altitude;pressure_sealevel;temperature;humidity
78843;BME280;70542;53.774;-0.352;2023-09-08T00:04:00;101760;;;19;54
78843;BME280;70542;53.774;-0.352;2023-09-08T00:09:38;101750;;;20;50
78843;BME280;70542;53.774;-0.352;2023-09-08T00:15:17;101760;;;21;50
78843;BME280;70542;53.774;-0.352;2023-09-08T00:20:56;101760;;;21;49
78843;BME280;70542;53.774;-0.352;2023-09-08T00:26:34;101740;;;20;50
78843;BME280;70542;53.774;-0.352;2023-09-08T00:32:18;101740;;;20;52
78843;BME280;70542;53.774;-0.352;2023-09-08T00:37:57;101740;;;21;51
78843;BME280;70542;53.774;-0.352;2023-09-08T00:43:35;101740;;;20;52
78843;BME280;70542;53.774;-0.352;2023-09-08T00:49:20;101720;;;20;51
78843;BME280;70542;53.774;-0.352;2023-09-08T00:54:59;101720;;;21;48
78843;BME280;70542;53.774;-0.352;2023-09-08T01:00:38;101730;;;21;49
78843;BME280;70542;53.774;-0.352;2023-09-08T01:06:17;101740;;;20;51
78843;BME280;70542;53.774;-0.352;2023-09-08T01:11:56;101740;;;19;53
78843;BME280;70542;53.774;-0.352;2023-09-08T01:17:35;101730;;;20;52
78843;BME280;70542;53.774;-0.352;2023-09-08T01:23:21;101720;;;19;54
78843;BME280;70542;53.774;-0.352;2023-09-08T01:29:03;101710;;;21;51
78843;BME280;70542;53.774;-0.352;2023-09-08T01:34:43;101700;;;19;53
78843;BME280;70542;53.774;-0.352;2023-09-08T01:40:22;101700;;;20;51
78843;BME280;70542;53.774;-0.352;2023-09-08T01:46:04;101710;;;19;53
78843;BME280;70542;53.774;-0.352;2023-09-08T01:51:48;101720;;;17;57
78843;BME280;70542;53.774;-0.352;2023-09-08T02:03:25;101710;;;18;54
78843;BME280;70542;53.774;-0.352;2023-09-08T02:09:08;101700;;;21;50
78843;BME280;70542;53.774;-0.352;2023-09-08T02:14:47;101700;;;21;49
78843;BME280;70542;53.774;-0.352;2023-09-08T02:20:26;101700;;;22;47
78843;BME280;70542;53.774;-0.352;2023-09-08T02:26:05;101700;;;21;49
78843;BME280;70542;53.774;-0.352;2023-09-08T02:31:44;101690;;;20;50
78843;BME280;70542;53.774;-0.352;2023-09-08T02:37:22;101690;;;21;47
78843;BME280;70542;53.774;-0.352;2023-09-08T02:43:02;101690;;;20;49
78843;BME280;70542;53.774;-0.352;2023-09-08T02:48:41;101710;;;17;58
78843;BME280;70542;53.774;-0.352;2023-09-08T02:54:20;101700;;;20;51
78843;BME280;70542;53.774;-0.352;2023-09-08T03:00:05;101700;;;21;48
78843;BME280;70542;53.774;-0.352;2023-09-08T03:05:43;101690;;;19;51
78843;BME280;70542;53.774;-0.352;2023-09-08T03:11:22;101690;;;18;54
78843;BME280;70542;53.774;-0.352;2023-09-08T03:17:06;101680;;;20;50
78843;BME280;70542;53.774;-0.352;2023-09-08T03:22:44;101660;;;21;46
78843;BME280;70542;53.774;-0.352;2023-09-08T03:28:23;101670;;;17;56
78843;BME280;70542;53.774;-0.352;2023-09-08T03:34:02;101670;;;17;55
78843;BME280;70542;53.774;-0.352;2023-09-08T03:39:41;101660;;;19;50
78843;BME280;70542;53.774;-0.352;2023-09-08T03:45:21;101670;;;18;52
78843;BME280;70542;53.774;-0.352;2023-09-08T03:51:00;101680;;;19;50
78843;BME280;70542;53.774;-0.352;2023-09-08T03:56:39;101680;;;19;51
78843;BME280;70542;53.774;-0.352;2023-09-08T04:02:18;101680;;;19;52
78843;BME280;70542;53.774;-0.352;2023-09-08T04:07:57;101690;;;17;54
78843;BME280;70542;53.774;-0.352;2023-09-08T04:13:35;101690;;;18;54
78843;BME280;70542;53.774;-0.352;2023-09-08T04:19:14;101690;;;16;56
78843;BME280;70542;53.774;-0.352;2023-09-08T04:24:53;101680;;;18;53
78843;BME280;70542;53.774;-0.352;2023-09-08T04:30:31;101690;;;18;54
78843;BME280;70542;53.774;-0.352;2023-09-08T04:36:10;101680;;;16;55
78843;BME280;70542;53.774;-0.352;2023-09-08T04:41:49;101680;;;17;55
78843;BME280;70542;53.774;-0.352;2023-09-08T04:47:28;101680;;;18;52
78843;BME280;70542;53.774;-0.352;2023-09-08T04:53:11;101680;;;20;48
78843;BME280;70542;53.774;-0.352;2023-09-08T04:58:50;101680;;;19;50
78843;BME280;70542;53.774;-0.352;2023-09-08T05:04:29;101690;;;18;52
78843;BME280;70542;53.774;-0.352;2023-09-08T05:10:13;101700;;;17;54
78843;BME280;70542;53.774;-0.352;2023-09-08T05:15:51;101700;;;16;57
78843;BME280;70542;53.774;-0.352;2023-09-08T05:21:30;101700;;;17;54
78843;BME280;70542;53.774;-0.352;2023-09-08T05:27:09;101700;;;18;52
78843;BME280;70542;53.774;-0.352;2023-09-08T05:32:49;101700;;;17;54
78843;BME280;70542;53.774;-0.352;2023-09-08T05:38:28;101700;;;18;50
78843;BME280;70542;53.774;-0.352;2023-09-08T05:44:08;101710;;;20;48
78843;BME280;70542;53.774;-0.352;2023-09-08T05:49:46;101710;;;20;49
78843;BME280;70542;53.774;-0.352;2023-09-08T05:55:25;101720;;;20;47
78843;BME280;70542;53.774;-0.352;2023-09-08T06:01:05;101720;;;16;57
78843;BME280;70542;53.774;-0.352;2023-09-08T06:06:43;101740;;;19;50
78843;BME280;70542;53.774;-0.352;2023-09-08T06:12:22;101740;;;19;51
78843;BME280;70542;53.774;-0.352;2023-09-08T06:18:06;101740;;;20;47
78843;BME280;70542;53.774;-0.352;2023-09-08T06:23:45;101740;;;20;48
78843;BME280;70542;53.774;-0.352;2023-09-08T06:29:45;101740;;;20;48
78843;BME280;70542;53.774;-0.352;2023-09-08T06:35:35;101750;;;19;52
78843;BME280;70542;53.774;-0.352;2023-09-08T06:41:20;101740;;;20;48
78843;BME280;70542;53.774;-0.352;2023-09-08T06:47:05;101750;;;19;49
78843;BME280;70542;53.774;-0.352;2023-09-08T06:52:50;101740;;;20;47
78843;BME280;70542;53.774;-0.352;2023-09-08T06:58:28;101740;;;19;49
78843;BME280;70542;53.774;-0.352;2023-09-08T07:04:12;101750;;;15;59
78843;BME280;70542;53.774;-0.352;2023-09-08T07:09:51;101750;;;17;55
78843;BME280;70542;53.774;-0.352;2023-09-08T07:15:35;101750;;;18;54
78843;BME280;70542;53.774;-0.352;2023-09-08T07:21:22;101760;;;19;52
78843;BME280;70542;53.774;-0.352;2023-09-08T07:27:16;101750;;;17;56
78843;BME280;70542;53.774;-0.352;2023-09-08T07:58:37;101750;;;18;51
78843;BME280;70542;53.774;-0.352;2023-09-08T10:21:26;101760;;;20;49
78843;BME280;70542;53.774;-0.352;2023-09-08T10:27:09;101760;;;18;53
78843;BME280;70542;53.774;-0.352;2023-09-08T10:32:48;101750;;;21;48
78843;BME280;70542;53.774;-0.352;2023-09-08T10:38:29;101750;;;23;44
78843;BME280;70542;53.774;-0.352;2023-09-08T10:44:08;101740;;;22;45
78843;BME280;70542;53.774;-0.352;2023-09-08T10:49:46;101740;;;20;49
78843;BME280;70542;53.774;-0.352;2023-09-08T10:55:35;101740;;;19;54
78843;BME280;70542;53.774;-0.352;2023-09-08T11:01:16;101750;;;22;47
78843;BME280;70542;53.774;-0.352;2023-09-08T11:06:56;101740;;;20;48
78843;BME280;70542;53.774;-0.352;2023-09-08T11:12:39;101730;;;20;48
78843;BME280;70542;53.774;-0.352;2023-09-08T11:18:26;101730;;;23;44
78843;BME280;70542;53.774;-0.352;2023-09-08T11:24:13;101730;;;22;45
78843;BME280;70542;53.774;-0.352;2023-09-08T11:29:57;101730;;;24;43
78843;BME280;70542;53.774;-0.352;2023-09-08T11:35:47;101720;;;25;41
78843;BME280;70542;53.774;-0.352;2023-09-08T11:41:32;101720;;;25;39
78843;BME280;70542;53.774;-0.352;2023-09-08T11:47:21;101720;;;26;38
78843;BME280;70542;53.774;-0.352;2023-09-08T11:53:00;101710;;;25;41
78843;BME280;70542;53.774;-0.352;2023-09-08T11:58:39;101710;;;25;39
78843;BME280;70542;53.774;-0.352;2023-09-08T12:04:24;101700;;;26;38
78843;BME280;70542;53.774;-0.352;2023-09-08T12:10:08;101690;;;25;40
78843;BME280;70542;53.774;-0.352;2023-09-08T12:15:47;101700;;;26;36
78843;BME280;70542;53.774;-0.352;2023-09-08T12:21:25;101700;;;25;40
78843;BME280;70542;53.774;-0.352;2023-09-08T12:27:26;101700;;;23;43
78843;BME280;70542;53.774;-0.352;2023-09-08T12:33:10;101700;;;24;41
78843;BME280;70542;53.774;-0.352;2023-09-08T12:38:50;101700;;;24;42
78843;BME280;70542;53.774;-0.352;2023-09-08T12:44:34;101690;;;24;41
78843;BME280;70542;53.774;-0.352;2023-09-08T12:50:13;101690;;;26;37
78843;BME280;70542;53.774;-0.352;2023-09-08T12:55:52;101690;;;27;34
78843;BME280;70542;53.774;-0.352;2023-09-08T13:01:31;101690;;;25;39
78843;BME280;70542;53.774;-0.352;2023-09-08T13:07:09;101690;;;26;37
78843;BME280;70542;53.774;-0.352;2023-09-08T13:12:48;101680;;;27;35
78843;BME280;70542;53.774;-0.352;2023-09-08T13:18:27;101690;;;24;40
78843;BME280;70542;53.774;-0.352;2023-09-08T13:24:07;101690;;;24;40
78843;BME280;70542;53.774;-0.352;2023-09-08T13:29:46;101690;;;23;42
78843;BME280;70542;53.774;-0.352;2023-09-08T13:35:25;101700;;;23;41
78843;BME280;70542;53.774;-0.352;2023-09-08T13:41:05;101680;;;25;37
78843;BME280;70542;53.774;-0.352;2023-09-08T13:46:45;101670;;;26;35
78843;BME280;70542;53.774;-0.352;2023-09-08T13:52:24;101660;;;28;32
78843;BME280;70542;53.774;-0.352;2023-09-08T13:58:04;101660;;;28;32
78843;BME280;70542;53.774;-0.352;2023-09-08T14:03:48;101660;;;29;31
78843;BME280;70542;53.774;-0.352;2023-09-08T14:09:26;101660;;;27;33
78843;BME280;70542;53.774;-0.352;2023-09-08T14:15:07;101660;;;28;32
78843;BME280;70542;53.774;-0.352;2023-09-08T14:20:47;101650;;;29;31
78843;BME280;70542;53.774;-0.352;2023-09-08T14:26:26;101650;;;29;30
78843;BME280;70542;53.774;-0.352;2023-09-08T14:32:05;101640;;;28;32
78843;BME280;70542;53.774;-0.352;2023-09-08T14:37:46;101640;;;29;31
78843;BME280;70542;53.774;-0.352;2023-09-08T14:43:25;101630;;;29;31
78843;BME280;70542;53.774;-0.352;2023-09-08T14:49:05;101630;;;29;30
78843;BME280;70542;53.774;-0.352;2023-09-08T14:54:50;101630;;;27;33
78843;BME280;70542;53.774;-0.352;2023-09-08T15:00:30;101630;;;28;32
78843;BME280;70542;53.774;-0.352;2023-09-08T15:06:08;101620;;;27;35
78843;BME280;70542;53.774;-0.352;2023-09-08T15:11:47;101610;;;28;33
78843;BME280;70542;53.774;-0.352;2023-09-08T15:17:25;101600;;;28;32
78843;BME280;70542;53.774;-0.352;2023-09-08T15:23:04;101600;;;29;31
78843;BME280;70542;53.774;-0.352;2023-09-08T15:28:43;101600;;;27;34
78843;BME280;70542;53.774;-0.352;2023-09-08T15:34:22;101600;;;28;33
78843;BME280;70542;53.774;-0.352;2023-09-08T15:40:09;101600;;;27;35
78843;BME280;70542;53.774;-0.352;2023-09-08T15:45:53;101590;;;29;33
78843;BME280;70542;53.774;-0.352;2023-09-08T15:51:42;101590;;;28;34
78843;BME280;70542;53.774;-0.352;2023-09-08T15:57:21;101580;;;27;36
78843;BME280;70542;53.774;-0.352;2023-09-08T16:03:10;101580;;;25;39
78843;BME280;70542;53.774;-0.352;2023-09-08T16:08:48;101580;;;27;35
78843;BME280;70542;53.774;-0.352;2023-09-08T16:14:27;101590;;;27;35
78843;BME280;70542;53.774;-0.352;2023-09-08T16:20:07;101600;;;27;36
78843;BME280;70542;53.774;-0.352;2023-09-08T16:25:46;101600;;;27;36
78843;BME280;70542;53.774;-0.352;2023-09-08T16:31:25;101610;;;26;37
78843;BME280;70542;53.774;-0.352;2023-09-08T16:37:05;101610;;;25;39
78843;BME280;70542;53.774;-0.352;2023-09-08T16:43:20;101610;;;26;38
78843;BME280;70542;53.774;-0.352;2023-09-08T16:49:14;101600;;;24;40
78843;BME280;70542;53.774;-0.352;2023-09-08T16:55:02;101600;;;22;43
78843;BME280;70542;53.774;-0.352;2023-09-08T17:00:41;101600;;;24;40
78843;BME280;70542;53.774;-0.352;2023-09-08T17:06:20;101610;;;25;38
78843;BME280;70542;53.774;-0.352;2023-09-08T17:11:58;101620;;;22;47
78843;BME280;70542;53.774;-0.352;2023-09-08T17:17:37;101620;;;21;48
78843;BME280;70542;53.774;-0.352;2023-09-08T17:23:16;101610;;;20;51
78843;BME280;70542;53.774;-0.352;2023-09-08T17:28:54;101610;;;21;49
78843;BME280;70542;53.774;-0.352;2023-09-08T17:34:33;101610;;;21;51
78843;BME280;70542;53.774;-0.352;2023-09-08T17:40:12;101610;;;23;47
78843;BME280;70542;53.774;-0.352;2023-09-08T17:45:51;101610;;;22;47
78843;BME280;70542;53.774;-0.352;2023-09-08T17:51:29;101620;;;20;51
78843;BME280;70542;53.774;-0.352;2023-09-08T17:57:08;101620;;;21;50
78843;BME280;70542;53.774;-0.352;2023-09-08T18:02:47;101620;;;20;53
78843;BME280;70542;53.774;-0.352;2023-09-08T18:08:25;101630;;;20;52
78843;BME280;70542;53.774;-0.352;2023-09-08T18:14:04;101630;;;19;55
78843;BME280;70542;53.774;-0.352;2023-09-08T18:19:42;101630;;;21;49
78843;BME280;70542;53.774;-0.352;2023-09-08T18:25:21;101630;;;23;44
78843;BME280;70542;53.774;-0.352;2023-09-08T18:31:00;101630;;;23;44
78843;BME280;70542;53.774;-0.352;2023-09-08T18:36:39;101630;;;20;49
78843;BME280;70542;53.774;-0.352;2023-09-08T18:42:24;101630;;;19;51
78843;BME280;70542;53.774;-0.352;2023-09-08T18:48:03;101640;;;22;45
78843;BME280;70542;53.774;-0.352;2023-09-08T18:53:47;101640;;;20;48
78843;BME280;70542;53.774;-0.352;2023-09-08T18:59:25;101650;;;21;46
78843;BME280;70542;53.774;-0.352;2023-09-08T19:05:09;101640;;;20;49
78843;BME280;70542;53.774;-0.352;2023-09-08T19:10:48;101640;;;23;44
78843;BME280;70542;53.774;-0.352;2023-09-08T19:16:30;101640;;;20;47
78843;BME280;70542;53.774;-0.352;2023-09-08T19:22:14;101660;;;23;43
78843;BME280;70542;53.774;-0.352;2023-09-08T19:27:53;101670;;;23;43
78843;BME280;70542;53.774;-0.352;2023-09-08T19:33:31;101670;;;21;47
78843;BME280;70542;53.774;-0.352;2023-09-08T19:39:10;101670;;;23;42
78843;BME280;70542;53.774;-0.352;2023-09-08T19:44:49;101670;;;20;49
78843;BME280;70542;53.774;-0.352;2023-09-08T19:50:32;101670;;;19;50
78843;BME280;70542;53.774;-0.352;2023-09-08T19:56:11;101660;;;19;52
78843;BME280;70542;53.774;-0.352;2023-09-08T20:01:55;101660;;;20;49
78843;BME280;70542;53.774;-0.352;2023-09-08T20:07:34;101650;;;21;47
78843;BME280;70542;53.774;-0.352;2023-09-08T20:13:13;101660;;;18;54
78843;BME280;70542;53.774;-0.352;2023-09-08T20:18:52;101660;;;19;52
78843;BME280;70542;53.774;-0.352;2023-09-08T20:24:31;101660;;;19;52
78843;BME280;70542;53.774;-0.352;2023-09-08T20:30:11;101660;;;21;49
78843;BME280;70542;53.774;-0.352;2023-09-08T20:35:50;101660;;;18;56
78843;BME280;70542;53.774;-0.352;2023-09-08T20:41:28;101650;;;22;46
78843;BME280;70542;53.774;-0.352;2023-09-08T20:47:12;101660;;;18;56
78843;BME280;70542;53.774;-0.352;2023-09-08T20:52:56;101660;;;22;47
78843;BME280;70542;53.774;-0.352;2023-09-08T20:58:35;101660;;;21;47
78843;BME280;70542;53.774;-0.352;2023-09-08T21:04:14;101650;;;22;46
78843;BME280;70542;53.774;-0.352;2023-09-08T21:09:53;101660;;;21;47
78843;BME280;70542;53.774;-0.352;2023-09-08T21:15:32;101650;;;21;49
78843;BME280;70542;53.774;-0.352;2023-09-08T21:21:16;101650;;;21;49
78843;BME280;70542;53.774;-0.352;2023-09-08T21:26:55;101650;;;23;45
78843;BME280;70542;53.774;-0.352;2023-09-08T21:32:45;101640;;;22;48
78843;BME280;70542;53.774;-0.352;2023-09-08T21:38:23;101640;;;22;46
78843;BME280;70542;53.774;-0.352;2023-09-08T21:44:32;101630;;;20;49
78843;BME280;70542;53.774;-0.352;2023-09-08T21:50:29;101620;;;23;45
78843;BME280;70542;53.774;-0.352;2023-09-08T21:56:23;101620;;;21;47
78843;BME280;70542;53.774;-0.352;2023-09-08T22:02:17;101620;;;22;45
78843;BME280;70542;53.774;-0.352;2023-09-08T22:08:09;101620;;;22;43
78843;BME280;70542;53.774;-0.352;2023-09-08T22:13:49;101620;;;19;49
78843;BME280;70542;53.774;-0.352;2023-09-08T22:19:29;101630;;;21;46
78843;BME280;70542;53.774;-0.352;2023-09-08T22:25:18;101630;;;20;47
78843;BME280;70542;53.774;-0.352;2023-09-08T22:31:29;101620;;;19;50
78843;BME280;70542;53.774;-0.352;2023-09-08T22:37:18;101630;;;17;56
78843;BME280;70542;53.774;-0.352;2023-09-08T22:43:18;101630;;;20;48
78843;BME280;70542;53.774;-0.352;2023-09-08T22:49:22;101630;;;20;48
78843;BME280;70542;53.774;-0.352;2023-09-08T22:55:13;101630;;;20;48
78843;BME280;70542;53.774;-0.352;2023-09-08T23:01:18;101630;;;18;51
78843;BME280;70542;53.774;-0.352;2023-09-08T23:06:57;101630;;;19;49
78843;BME280;70542;53.774;-0.352;2023-09-08T23:12:36;101620;;;22;44
78843;BME280;70542;53.774;-0.352;2023-09-08T23:18:15;101610;;;20;47
78843;BME280;70542;53.774;-0.352;2023-09-08T23:23:54;101610;;;21;45
78843;BME280;70542;53.774;-0.352;2023-09-08T23:29:33;101610;;;20;48
78843;BME280;70542;53.774;-0.352;2023-09-08T23:35:12;101610;;;21;46
78843;BME280;70542;53.774;-0.352;2023-09-08T23:40:52;101610;;;20;48
78843;BME280;70542;53.774;-0.352;2023-09-08T23:46:37;101610;;;21;45
78843;BME280;70542;53.774;-0.352;2023-09-08T23:52:15;101610;;;20;47
78843;BME280;70542;53.774;-0.352;2023-09-08T23:57:59;101620;;;19;50
